createdAt,value
2022-09-15T00:01:12.871Z,99980.13
2022-09-15T00:03:41.680Z,99978.97
2022-09-15T00:06:10.267Z,99981.28
2022-09-15T00:08:38.061Z,99976.59
2022-09-15T00:11:09.497Z,99982.63
2022-09-15T00:13:39.540Z,99977.94
2022-09-15T00:16:08.700Z,99982.44
2022-09-15T00:18:37.415Z,99976.28
2022-09-15T00:21:07.059Z,99976.47
2022-09-15T00:23:34.732Z,99974.94
2022-09-15T00:26:02.628Z,99975.97
2022-09-15T00:28:32.723Z,99961.78
2022-09-15T00:31:00.381Z,99968.13
2022-09-15T00:33:27.986Z,99967.28
2022-09-15T00:35:55.562Z,99970.28
2022-09-15T00:38:23.135Z,99971.47
2022-09-15T00:40:52.862Z,99976.31
2022-09-15T00:43:22.549Z,99975.66
2022-09-15T00:45:53.016Z,99976.81
2022-09-15T00:48:23.845Z,99978.00
2022-09-15T00:50:58.215Z,99974.81
2022-09-15T00:53:27.109Z,99974.34
2022-09-15T00:55:57.519Z,99974.66
2022-09-15T00:58:28.247Z,99968.03
2022-09-15T01:01:00.117Z,99976.34
2022-09-15T01:03:32.536Z,99978.53
2022-09-15T01:06:05.117Z,99979.69
2022-09-15T01:08:37.478Z,99982.88
2022-09-15T01:11:05.052Z,99985.88
2022-09-15T01:13:32.760Z,99988.03
2022-09-15T01:16:11.351Z,99991.06
2022-09-15T01:18:49.067Z,99992.22
2022-09-15T01:21:24.717Z,99990.72
2022-09-15T01:24:24.023Z,99986.72
2022-09-15T01:27:24.446Z,99988.03
2022-09-15T01:30:15.316Z,99987.38
2022-09-15T01:33:06.547Z,99987.69
2022-09-15T01:35:48.080Z,99988.03
2022-09-15T01:38:24.536Z,99985.69
2022-09-15T01:40:57.942Z,99989.53
2022-09-15T01:43:29.465Z,99991.69
2022-09-15T01:46:00.667Z,99981.19
2022-09-15T01:48:30.326Z,99985.03
2022-09-15T01:51:01.416Z,99986.19
2022-09-15T01:53:29.926Z,99987.38
2022-09-15T01:56:01.655Z,99989.38
2022-09-15T01:58:29.619Z,99995.66
2022-09-15T02:01:04.932Z,99987.84
2022-09-15T02:03:40.342Z,99986.19
2022-09-15T02:06:14.526Z,99981.03
2022-09-15T02:08:47.475Z,99980.03
2022-09-15T02:11:18.082Z,99979.19
2022-09-15T02:13:54.076Z,99981.03
2022-09-15T02:16:24.802Z,99980.19
2022-09-15T02:19:11.035Z,99972.84
2022-09-15T02:21:50.960Z,99976.34
2022-09-15T02:24:23.252Z,99977.19
2022-09-15T02:26:54.930Z,99979.84
2022-09-15T02:29:27.187Z,99992.03
2022-09-15T02:32:01.664Z,99987.53
2022-09-15T02:34:37.246Z,99984.03
2022-09-15T02:37:06.153Z,99981.19
2022-09-15T02:39:37.874Z,99985.34
2022-09-15T02:42:06.057Z,99991.38
2022-09-15T02:44:33.740Z,99993.88
2022-09-15T02:47:03.798Z,99990.19
2022-09-15T02:49:31.537Z,99982.84
2022-09-15T02:51:59.054Z,99990.53
2022-09-15T02:54:26.599Z,99987.69
2022-09-15T02:56:54.205Z,100004.38
2022-09-15T02:59:21.788Z,99998.72
2022-09-15T03:01:49.878Z,99987.88
2022-09-15T03:04:18.957Z,99989.38
2022-09-15T03:06:46.544Z,99990.06
2022-09-15T03:09:14.300Z,99994.19
2022-09-15T03:11:41.832Z,99990.38
2022-09-15T03:14:10.228Z,99988.19
2022-09-15T03:16:37.872Z,99994.88
2022-09-15T03:19:05.601Z,99996.41
2022-09-15T03:21:34.763Z,99996.03
2022-09-15T03:24:02.772Z,100000.25
2022-09-15T03:26:30.980Z,99992.88
2022-09-15T03:28:58.544Z,99989.88
2022-09-15T03:31:26.181Z,99991.38
2022-09-15T03:33:55.944Z,99992.88
2022-09-15T03:36:23.498Z,99987.22
2022-09-15T03:38:52.533Z,99983.34
2022-09-15T03:41:20.229Z,99990.22
2022-09-15T03:43:47.830Z,99987.38
2022-09-15T03:46:15.581Z,99984.53
2022-09-15T03:48:43.238Z,99979.84
2022-09-15T03:51:11.910Z,99982.34
2022-09-15T03:53:41.745Z,99979.50
2022-09-15T03:56:12.882Z,99977.84
2022-09-15T03:58:40.704Z,99973.16
2022-09-15T04:01:08.620Z,99973.16
2022-09-15T04:03:40.349Z,99975.84
2022-09-15T04:06:11.909Z,99974.00
2022-09-15T04:08:39.800Z,99984.66
2022-09-15T04:11:08.459Z,99982.84
2022-09-15T04:13:38.684Z,99981.00
2022-09-15T04:16:09.020Z,99986.19
2022-09-15T04:18:37.060Z,99985.19
2022-09-15T04:21:07.511Z,99982.50
2022-09-15T04:23:35.854Z,99983.34
2022-09-15T04:26:06.565Z,99987.66
2022-09-15T04:28:36.826Z,99992.00
2022-09-15T04:31:10.335Z,99994.53
2022-09-15T04:33:39.526Z,99991.69
2022-09-15T04:36:09.179Z,99996.00
2022-09-15T04:38:37.598Z,99991.31
2022-09-15T04:41:05.876Z,100000.00
2022-09-15T04:43:34.133Z,99993.66
2022-09-15T04:46:02.354Z,99992.66
2022-09-15T04:48:32.007Z,100002.31
2022-09-15T04:51:02.276Z,99997.00
2022-09-15T04:53:30.921Z,99995.97
2022-09-15T04:56:06.398Z,99995.00
2022-09-15T04:58:37.451Z,99996.81
2022-09-15T05:01:08.908Z,99994.00
2022-09-15T05:03:38.890Z,99998.16
2022-09-15T05:06:08.355Z,100005.97
2022-09-15T05:08:36.376Z,100001.47
2022-09-15T05:11:06.068Z,100006.66
2022-09-15T05:13:34.537Z,100009.16
2022-09-15T05:16:06.938Z,100002.81
2022-09-15T05:18:34.775Z,100007.97
2022-09-15T05:21:05.664Z,100010.50
2022-09-15T05:23:34.466Z,100011.16
2022-09-15T05:26:04.872Z,100007.47
2022-09-15T05:28:33.687Z,100006.47
2022-09-15T05:31:01.377Z,100017.03
2022-09-15T05:33:29.434Z,100016.00
2022-09-15T05:35:59.236Z,100018.31
2022-09-15T05:38:30.922Z,100013.66
2022-09-15T05:41:03.348Z,100012.47
2022-09-15T05:43:31.986Z,100015.97
2022-09-15T05:45:59.567Z,100015.78
2022-09-15T05:48:27.632Z,100017.50
2022-09-15T05:50:56.633Z,100027.81
2022-09-15T05:53:24.932Z,100028.66
2022-09-15T05:55:57.734Z,100031.81
2022-09-15T05:58:25.790Z,100030.63
2022-09-15T06:00:54.228Z,100029.63
2022-09-15T06:03:27.499Z,100032.97
2022-09-15T06:06:00.192Z,100037.31
2022-09-15T06:08:32.548Z,100039.63
2022-09-15T06:11:09.501Z,100035.97
2022-09-15T06:13:37.564Z,100032.94
2022-09-15T06:16:07.699Z,100031.91
2022-09-15T06:18:37.231Z,100032.59
2022-09-15T06:21:06.981Z,100033.25
2022-09-15T06:23:35.038Z,100043.59
2022-09-15T06:26:12.359Z,100038.09
2022-09-15T06:28:42.072Z,100039.75
2022-09-15T06:31:14.343Z,100041.22
2022-09-15T06:33:43.984Z,100040.88
2022-09-15T06:36:11.872Z,100043.38
2022-09-15T06:38:40.006Z,100049.03
2022-09-15T06:41:07.902Z,100049.53
2022-09-15T06:43:37.094Z,100047.16
2022-09-15T06:46:06.071Z,100052.16
2022-09-15T06:48:33.695Z,100043.78
2022-09-15T06:51:02.087Z,100046.94
2022-09-15T06:53:30.923Z,100052.13
2022-09-15T06:56:03.536Z,100049.09
2022-09-15T06:58:31.180Z,100062.13
2022-09-15T07:01:03.539Z,100055.59
2022-09-15T07:03:31.273Z,100057.91
2022-09-15T07:05:58.874Z,100060.44
2022-09-15T07:08:26.439Z,100056.56
2022-09-15T07:10:54.907Z,100062.56
2022-09-15T07:13:22.511Z,100063.22
2022-09-15T07:15:54.473Z,100066.53
2022-09-15T07:18:23.347Z,100067.69
2022-09-15T07:20:51.462Z,100065.84
2022-09-15T07:23:19.814Z,100070.84
2022-09-15T07:25:47.422Z,100070.66
2022-09-15T07:28:15.561Z,100074.81
2022-09-15T07:30:43.391Z,100075.50
2022-09-15T07:33:14.380Z,100080.47
2022-09-15T07:35:44.507Z,100084.66
2022-09-15T07:38:12.352Z,100091.16
2022-09-15T07:40:40.017Z,100088.97
2022-09-15T07:43:07.758Z,100094.81
2022-09-15T07:45:36.141Z,100091.56
2022-09-15T07:48:04.100Z,100087.34
2022-09-15T07:50:31.645Z,100089.50
2022-09-15T07:53:00.518Z,100087.31
2022-09-15T07:55:28.175Z,100083.44
2022-09-15T07:57:59.437Z,100091.13
2022-09-15T08:00:28.365Z,100082.53
2022-09-15T08:02:56.012Z,100080.34
2022-09-15T08:05:27.065Z,100087.00
2022-09-15T08:07:55.139Z,100093.66
2022-09-15T08:10:25.350Z,100095.78
2022-09-15T08:12:53.265Z,100108.66
2022-09-15T08:15:21.536Z,100112.66
2022-09-15T08:17:49.144Z,100112.25
2022-09-15T08:20:16.683Z,100117.44
2022-09-15T08:22:45.478Z,100115.63
2022-09-15T08:25:13.380Z,100117.56
2022-09-15T08:27:42.289Z,100116.84
2022-09-15T08:30:10.756Z,100122.84
2022-09-15T08:32:38.513Z,100122.13
2022-09-15T08:35:07.499Z,100130.44
2022-09-15T08:37:35.324Z,100127.38
2022-09-15T08:40:03.589Z,100122.69
2022-09-15T08:42:31.356Z,100127.69
2022-09-15T08:45:04.040Z,100128.16
2022-09-15T08:47:36.755Z,100134.97
2022-09-15T08:50:10.178Z,100121.88
2022-09-15T08:52:42.688Z,100129.72
2022-09-15T08:55:16.988Z,100141.59
2022-09-15T08:57:45.002Z,100144.38
2022-09-15T09:00:17.468Z,100151.03
2022-09-15T09:03:04.950Z,100150.09
2022-09-15T09:05:45.706Z,100151.41
2022-09-15T09:08:35.175Z,100149.66
2022-09-15T09:11:10.434Z,100148.28
2022-09-15T09:13:45.667Z,100144.66
2022-09-15T09:16:29.430Z,100147.41
2022-09-15T09:19:06.311Z,100152.41
2022-09-15T09:21:39.428Z,100147.88
2022-09-15T09:24:15.811Z,100148.53
2022-09-15T09:26:44.933Z,100151.03
2022-09-15T09:29:17.508Z,100154.16
2022-09-15T09:31:48.628Z,100151.75
2022-09-15T09:34:23.751Z,100152.38
2022-09-15T09:36:55.783Z,100156.84
2022-09-15T09:39:23.565Z,100147.56
2022-09-15T09:41:51.242Z,100148.66
2022-09-15T09:44:20.295Z,100140.69
2022-09-15T09:46:49.504Z,100150.03
2022-09-15T09:49:23.521Z,100154.00
2022-09-15T09:51:52.918Z,100147.03
2022-09-15T09:54:24.887Z,100149.63
2022-09-15T09:56:54.158Z,100149.31
2022-09-15T09:59:34.782Z,100149.97
2022-09-15T10:02:15.699Z,100149.38
2022-09-15T10:04:45.102Z,100141.31
2022-09-15T10:07:14.374Z,100157.06
2022-09-15T10:09:50.220Z,100139.06
2022-09-15T10:12:22.937Z,100138.44
2022-09-15T10:14:53.669Z,100144.38
2022-09-15T10:17:24.914Z,100149.31
2022-09-15T10:19:54.366Z,100142.47
2022-09-15T10:22:25.766Z,100139.50
2022-09-15T10:24:54.258Z,100138.50
2022-09-15T10:27:28.732Z,100138.13
2022-09-15T10:29:59.499Z,100125.16
2022-09-15T10:32:30.229Z,100118.81
2022-09-15T10:35:07.529Z,100125.63
2022-09-15T10:37:39.440Z,100121.34
2022-09-15T10:40:19.309Z,100121.84
2022-09-15T10:42:52.831Z,100124.53
2022-09-15T10:45:33.684Z,100128.50
2022-09-15T10:48:47.604Z,100132.03
2022-09-15T10:51:29.109Z,100130.81
2022-09-15T10:54:23.292Z,100133.13
2022-09-15T10:56:56.082Z,100132.91
2022-09-15T10:59:38.816Z,100130.44
2022-09-15T11:02:34.020Z,100132.28
2022-09-15T11:05:22.647Z,100135.56
2022-09-15T11:08:14.116Z,100123.97
2022-09-15T11:10:48.504Z,100128.22
2022-09-15T11:13:25.692Z,100130.53
2022-09-15T11:16:03.478Z,100125.00
2022-09-15T11:18:55.548Z,100130.00
2022-09-15T11:21:30.583Z,100126.91
2022-09-15T11:24:17.237Z,100136.69
2022-09-15T11:26:51.078Z,100134.66
2022-09-15T11:29:24.162Z,100138.22
2022-09-15T11:31:56.453Z,100139.78
2022-09-15T11:34:29.115Z,100131.78
2022-09-15T11:37:04.645Z,100140.22
2022-09-15T11:39:38.866Z,100139.22
2022-09-15T11:42:12.535Z,100132.38
2022-09-15T11:44:42.734Z,100133.59
2022-09-15T11:47:29.361Z,100148.47
2022-09-15T11:50:01.891Z,100142.69
2022-09-15T11:52:55.569Z,100152.91
2022-09-15T11:55:31.268Z,100163.38
2022-09-15T11:58:09.840Z,100168.53
2022-09-15T12:00:43.251Z,100172.78
2022-09-15T12:03:21.111Z,100161.31
2022-09-15T12:05:53.635Z,100161.09
2022-09-15T12:08:29.651Z,100158.97
2022-09-15T12:11:00.222Z,100147.97
2022-09-15T12:13:28.388Z,100154.78
2022-09-15T12:15:57.545Z,100156.03
2022-09-15T12:18:40.815Z,100153.13
2022-09-15T12:21:16.468Z,100155.44
2022-09-15T12:23:51.898Z,100162.28
2022-09-15T12:26:21.835Z,100150.50
2022-09-15T12:28:55.983Z,100147.22
2022-09-15T12:31:33.643Z,100151.59
2022-09-15T12:34:04.005Z,100153.84
2022-09-15T12:36:51.171Z,100161.50
2022-09-15T12:39:27.208Z,100159.22
2022-09-15T12:41:57.041Z,100147.19
2022-09-15T12:44:30.836Z,100147.13
2022-09-15T12:47:00.111Z,100143.22
2022-09-15T12:49:31.436Z,100152.94
2022-09-15T12:52:02.105Z,100150.84
2022-09-15T12:54:33.968Z,100154.16
2022-09-15T12:57:02.045Z,100151.28
2022-09-15T12:59:30.569Z,100158.72
2022-09-15T13:01:58.902Z,100156.47
2022-09-15T13:04:43.661Z,100146.59
2022-09-15T13:07:36.620Z,100151.63
2022-09-15T13:10:32.516Z,100148.81
2022-09-15T13:13:21.662Z,100153.84
2022-09-15T13:15:52.762Z,100144.84
2022-09-15T13:18:22.172Z,100154.44
2022-09-15T13:21:00.263Z,100141.03
2022-09-15T13:23:34.163Z,100141.72
2022-09-15T13:26:06.742Z,100145.06
2022-09-15T13:28:35.328Z,100141.63
2022-09-15T13:31:20.260Z,100135.63
2022-09-15T13:40:32.307Z,100132.81
2022-09-15T13:43:24.552Z,100128.22
2022-09-15T13:45:58.774Z,100142.09
2022-09-15T13:48:46.293Z,100133.59
2022-09-15T13:51:19.824Z,100127.75
2022-09-15T13:53:52.214Z,100128.34
2022-09-15T13:56:24.752Z,100137.88
2022-09-15T13:59:00.946Z,100126.22
2022-09-15T14:01:38.747Z,100122.06
2022-09-15T14:04:11.315Z,100133.88
2022-09-15T14:06:42.307Z,100129.28
2022-09-15T14:09:15.440Z,100122.44
2022-09-15T14:11:44.373Z,100129.88
2022-09-15T14:14:31.087Z,100126.97
2022-09-15T14:16:58.713Z,100128.44
2022-09-15T14:19:33.322Z,100128.81
2022-09-15T14:22:01.880Z,100134.53
2022-09-15T14:24:31.613Z,100131.97
2022-09-15T14:27:02.897Z,100135.47
2022-09-15T14:29:31.988Z,100132.16
2022-09-15T14:32:03.825Z,100139.56
2022-09-15T14:34:34.181Z,100144.69
2022-09-15T14:37:05.920Z,100144.84
2022-09-15T14:39:34.129Z,100152.66
2022-09-15T14:42:10.830Z,100152.63
2022-09-15T14:47:29.330Z,100143.66
2022-09-15T14:50:08.410Z,100143.41
2022-09-15T14:52:39.655Z,100147.50
2022-09-15T14:55:13.339Z,100147.06
2022-09-15T14:57:48.020Z,100140.41
2022-09-15T15:00:22.526Z,100145.78
2022-09-15T15:03:01.161Z,100137.53
2022-09-15T15:05:34.114Z,100130.94
2022-09-15T15:08:04.564Z,100134.25
2022-09-15T15:10:35.909Z,100136.38
2022-09-15T15:13:07.975Z,100134.53
2022-09-15T15:15:38.667Z,100132.91
2022-09-15T15:18:07.334Z,100137.47
2022-09-15T15:20:34.907Z,100129.59
2022-09-15T15:23:15.281Z,100124.41
2022-09-15T15:25:43.190Z,100131.84
2022-09-15T15:28:32.691Z,100132.22
2022-09-15T15:31:13.689Z,100130.13
2022-09-15T15:33:47.739Z,100130.50
2022-09-15T15:36:15.684Z,100131.72
2022-09-15T15:38:48.204Z,100128.38
2022-09-15T15:41:21.280Z,100139.31
2022-09-15T15:43:59.807Z,100138.69
2022-09-15T15:46:53.692Z,100145.94
2022-09-15T15:49:25.745Z,100146.75
2022-09-15T15:51:55.211Z,100147.78
2022-09-15T15:54:23.652Z,100149.81
2022-09-15T15:56:51.764Z,100140.56
2022-09-15T15:59:19.887Z,100158.09
2022-09-15T16:01:52.587Z,100152.72
2022-09-15T16:04:21.089Z,100156.03
2022-09-15T16:06:48.814Z,100148.78
2022-09-15T16:09:18.178Z,100151.88
2022-09-15T16:11:45.814Z,100148.56
2022-09-15T16:14:15.592Z,100146.03
2022-09-15T16:16:43.232Z,100146.63
2022-09-15T16:19:12.643Z,100144.38
2022-09-15T16:21:42.534Z,100145.59
2022-09-15T16:24:13.532Z,100149.97
2022-09-15T16:26:41.515Z,100152.84
2022-09-15T16:29:09.167Z,100153.00
2022-09-15T16:31:37.299Z,100157.94
2022-09-15T16:34:05.024Z,100161.53
2022-09-15T16:36:36.249Z,100156.47
2022-09-15T16:39:04.645Z,100159.09
2022-09-15T16:41:38.459Z,100152.41
2022-09-15T16:44:15.976Z,100158.16
2022-09-15T16:46:43.820Z,100147.97
2022-09-15T16:49:12.289Z,100157.25
2022-09-15T16:51:41.443Z,100161.19
2022-09-15T16:54:15.277Z,100164.41
2022-09-15T16:56:43.251Z,100166.44
2022-09-15T16:59:10.959Z,100169.66
2022-09-15T17:01:38.584Z,100159.13
2022-09-15T17:04:12.621Z,100169.66
2022-09-15T17:06:41.587Z,100171.53
2022-09-15T17:09:09.343Z,100180.16
2022-09-15T17:11:37.750Z,100182.19
2022-09-15T17:14:05.445Z,100189.59
2022-09-15T17:16:33.030Z,100182.09
2022-09-15T17:19:00.828Z,100186.00
2022-09-15T17:21:28.401Z,100187.47
2022-09-15T17:23:57.490Z,100186.38
2022-09-15T17:26:31.084Z,100194.41
2022-09-15T17:28:59.789Z,100188.63
2022-09-15T17:31:27.826Z,100195.25
2022-09-15T17:33:55.622Z,100192.69
2022-09-15T17:36:23.293Z,100193.22
2022-09-15T17:38:50.841Z,100193.78
2022-09-15T17:41:22.256Z,100197.19
2022-09-15T17:43:50.734Z,100204.41
2022-09-15T17:46:18.391Z,100208.31
2022-09-15T17:48:46.018Z,100205.81
2022-09-15T17:51:17.907Z,100205.97
2022-09-15T17:53:46.776Z,100200.63
2022-09-15T17:56:14.607Z,100197.84
2022-09-15T17:58:43.710Z,100199.59
2022-09-15T18:01:14.322Z,100190.09
2022-09-15T18:03:44.261Z,100194.44
2022-09-15T18:06:12.481Z,100191.47
2022-09-15T18:08:40.315Z,100197.84
2022-09-15T18:11:08.662Z,100191.81
2022-09-15T18:13:37.749Z,100193.50
2022-09-15T18:16:08.595Z,100195.31
2022-09-15T18:18:36.431Z,100201.91
2022-09-15T18:21:09.487Z,100202.09
2022-09-15T18:23:37.439Z,100207.63
2022-09-15T18:26:05.020Z,100208.81
2022-09-15T18:28:32.935Z,100211.00
2022-09-15T18:31:00.462Z,100213.22
2022-09-15T18:33:29.575Z,100210.72
2022-09-15T18:35:59.282Z,100215.59
2022-09-15T18:38:28.210Z,100220.47
2022-09-15T18:40:57.419Z,100217.34
2022-09-15T18:43:26.606Z,100220.56
2022-09-15T18:45:58.591Z,100220.94
2022-09-15T18:48:26.279Z,100220.63
2022-09-15T18:50:55.428Z,100222.19
2022-09-15T18:53:23.436Z,100231.59
2022-09-15T18:55:51.023Z,100234.16
2022-09-15T18:58:19.104Z,100231.34
2022-09-15T19:00:46.789Z,100232.91
2022-09-15T19:03:14.940Z,100241.47
2022-09-15T19:05:42.955Z,100236.81
2022-09-15T19:08:11.972Z,100233.81
2022-09-15T19:10:42.124Z,100236.19
2022-09-15T19:13:11.176Z,100240.25
2022-09-15T19:15:39.862Z,100246.13
2022-09-15T19:18:07.597Z,100250.84
2022-09-15T19:20:35.186Z,100250.50
2022-09-15T19:23:04.116Z,100247.34
2022-09-15T19:25:33.192Z,100247.53
2022-09-15T19:28:00.769Z,100259.41
2022-09-15T19:30:28.871Z,100251.72
2022-09-15T19:32:56.707Z,100258.25
2022-09-15T19:35:24.776Z,100257.41
2022-09-15T19:37:52.514Z,100258.59
2022-09-15T19:40:20.606Z,100255.28
2022-09-15T19:42:51.321Z,100255.28
2022-09-15T19:45:19.276Z,100254.41
2022-09-15T19:47:46.961Z,100263.44
2022-09-15T19:50:14.566Z,100264.25
2022-09-15T19:52:42.172Z,100261.78
2022-09-15T19:55:11.786Z,100265.13
2022-09-15T19:57:40.401Z,100265.28
2022-09-15T20:00:11.953Z,100271.63
2022-09-15T20:02:40.037Z,100273.50
2022-09-15T20:05:09.086Z,100272.28
2022-09-15T20:07:36.791Z,100277.81
2022-09-15T20:10:04.869Z,100273.31
2022-09-15T20:12:32.656Z,100278.66
2022-09-15T20:15:00.291Z,100276.16
2022-09-15T20:17:29.648Z,100277.19
2022-09-15T20:19:57.384Z,100275.16
2022-09-15T20:22:25.000Z,100272.66
2022-09-15T20:24:52.620Z,100262.97
2022-09-15T20:27:20.232Z,100266.47
2022-09-15T20:29:47.785Z,100268.66
2022-09-15T20:32:15.599Z,100274.84
2022-09-15T20:34:44.471Z,100284.53
2022-09-15T20:37:12.263Z,100288.06
2022-09-15T20:39:40.824Z,100286.53
2022-09-15T20:42:08.572Z,100291.06
2022-09-15T20:44:36.158Z,100293.25
2022-09-15T20:47:03.774Z,100297.75
2022-09-15T20:49:31.339Z,100296.94
2022-09-15T20:52:00.280Z,100288.25
2022-09-15T20:54:27.815Z,100291.94
2022-09-15T20:56:55.453Z,100292.09
2022-09-15T20:59:23.016Z,100294.09
2022-09-15T21:01:50.648Z,100295.13
2022-09-15T21:04:18.843Z,100293.44
2022-09-15T21:06:46.539Z,100297.97
2022-09-15T21:09:15.460Z,100306.31
2022-09-15T21:11:43.548Z,100304.00
2022-09-15T21:14:14.185Z,100312.19
2022-09-15T21:16:41.927Z,100309.69
2022-09-15T21:19:12.066Z,100309.03
2022-09-15T21:21:39.681Z,100307.34
2022-09-15T21:24:09.516Z,100311.19
2022-09-15T21:27:00.852Z,100313.53
2022-09-15T21:29:29.317Z,100311.69
2022-09-15T21:31:57.592Z,100306.69
2022-09-15T21:34:26.223Z,100308.34
2022-09-15T21:36:53.843Z,100305.03
2022-09-15T21:39:21.747Z,100309.69
2022-09-15T21:41:51.088Z,100309.22
2022-09-15T21:44:18.815Z,100316.53
2022-09-15T21:46:47.134Z,100311.38
2022-09-15T21:49:14.922Z,100307.88
2022-09-15T21:51:42.756Z,100320.59
2022-09-15T21:54:10.924Z,100323.56
2022-09-15T21:56:38.654Z,100324.59
2022-09-15T21:59:08.920Z,100316.06
2022-09-15T22:01:36.496Z,100317.06
2022-09-15T22:04:07.226Z,100319.09
2022-09-15T22:06:37.132Z,100319.41
2022-09-15T22:09:06.781Z,100317.25
2022-09-15T22:11:35.314Z,100320.41
2022-09-15T22:14:03.912Z,100318.88
2022-09-15T22:16:32.865Z,100323.09
2022-09-15T22:19:00.690Z,100318.06
2022-09-15T22:21:31.112Z,100319.06
2022-09-15T22:23:59.932Z,100317.06
2022-09-15T22:26:30.839Z,100319.03
2022-09-15T22:29:00.158Z,100315.53
2022-09-15T22:31:29.161Z,100313.38
2022-09-15T22:33:58.439Z,100322.56
2022-09-15T22:36:30.003Z,100322.91
2022-09-15T22:39:03.618Z,100322.19
2022-09-15T22:41:32.696Z,100314.53
2022-09-15T22:44:00.449Z,100318.22
2022-09-15T22:46:28.236Z,100310.50
2022-09-15T22:48:55.894Z,100320.34
2022-09-15T22:51:24.834Z,100321.69
2022-09-15T22:53:56.631Z,100317.47
2022-09-15T22:56:25.794Z,100320.31
2022-09-15T22:58:53.476Z,100322.81
2022-09-15T23:01:22.696Z,100311.63
2022-09-15T23:03:51.477Z,100323.47
2022-09-15T23:06:19.108Z,100315.78
2022-09-15T23:08:52.428Z,100314.09
2022-09-15T23:11:20.785Z,100315.28
2022-09-15T23:13:48.912Z,100314.44
2022-09-15T23:16:17.117Z,100308.59
2022-09-15T23:18:45.256Z,100314.94
2022-09-15T23:21:15.165Z,100312.56
2022-09-15T23:23:45.220Z,100318.06
2022-09-15T23:26:14.377Z,100313.75
2022-09-15T23:28:42.419Z,100314.75
2022-09-15T23:31:12.719Z,100314.06
2022-09-15T23:33:41.396Z,100312.38
2022-09-15T23:36:11.770Z,100314.22
2022-09-15T23:38:41.282Z,100309.06
2022-09-15T23:41:09.870Z,100303.88
2022-09-15T23:43:39.119Z,100311.06
2022-09-15T23:46:07.325Z,100304.84
2022-09-15T23:48:35.722Z,100302.34
2022-09-15T23:51:04.067Z,100307.69
2022-09-15T23:53:31.842Z,100306.03
2022-09-15T23:56:00.685Z,100316.03
2022-09-15T23:58:28.320Z,100306.34
